sensor_id;sensor_type;location;lat;lon;timestamp;pressure;altitude;pressure_sealevel;temperature;humidity
61119;BME280;51448;51.660;5.824;2023-06-26T00:00:39;101149.50;;;23.24;70.57
61119;BME280;51448;51.660;5.824;2023-06-26T00:03:06;101146.09;;;23.22;70.60
61119;BME280;51448;51.660;5.824;2023-06-26T00:05:35;101144.50;;;23.20;70.93
61119;BME280;51448;51.660;5.824;2023-06-26T00:08:03;101147.19;;;23.20;71.06
61119;BME280;51448;51.660;5.824;2023-06-26T00:10:31;101138.41;;;23.18;71.25
61119;BME280;51448;51.660;5.824;2023-06-26T00:12:59;101133.16;;;23.16;71.18
61119;BME280;51448;51.660;5.824;2023-06-26T00:15:27;101137.78;;;23.14;71.30
61119;BME280;51448;51.660;5.824;2023-06-26T00:17:59;101128.88;;;23.14;71.02
61119;BME280;51448;51.660;5.824;2023-06-26T00:20:26;101129.00;;;23.12;71.43
61119;BME280;51448;51.660;5.824;2023-06-26T00:22:54;101134.25;;;23.14;71.07
61119;BME280;51448;51.660;5.824;2023-06-26T00:25:23;101123.63;;;23.12;71.18
61119;BME280;51448;51.660;5.824;2023-06-26T00:27:51;101121.91;;;23.11;71.43
61119;BME280;51448;51.660;5.824;2023-06-26T00:30:19;101118.47;;;23.09;71.83
61119;BME280;51448;51.660;5.824;2023-06-26T00:32:46;101112.50;;;23.05;71.79
61119;BME280;51448;51.660;5.824;2023-06-26T00:35:14;101108.09;;;23.04;71.94
61119;BME280;51448;51.660;5.824;2023-06-26T00:37:44;101116.41;;;23.01;72.04
61119;BME280;51448;51.660;5.824;2023-06-26T00:40:12;101122.78;;;22.99;71.75
61119;BME280;51448;51.660;5.824;2023-06-26T00:42:40;101122.31;;;22.94;71.76
61119;BME280;51448;51.660;5.824;2023-06-26T00:45:08;101123.50;;;22.89;72.33
61119;BME280;51448;51.660;5.824;2023-06-26T00:47:36;101117.41;;;22.87;72.37
61119;BME280;51448;51.660;5.824;2023-06-26T00:50:06;101115.69;;;22.86;72.24
61119;BME280;51448;51.660;5.824;2023-06-26T00:52:34;101110.47;;;22.85;72.21
61119;BME280;51448;51.660;5.824;2023-06-26T00:55:03;101111.31;;;22.85;72.63
61119;BME280;51448;51.660;5.824;2023-06-26T00:57:31;101110.31;;;22.86;72.44
61119;BME280;51448;51.660;5.824;2023-06-26T01:00:01;101113.97;;;22.85;72.69
61119;BME280;51448;51.660;5.824;2023-06-26T01:02:31;101117.75;;;22.83;73.00
61119;BME280;51448;51.660;5.824;2023-06-26T01:05:01;101114.19;;;22.82;72.79
61119;BME280;51448;51.660;5.824;2023-06-26T01:07:36;101111.66;;;22.81;73.46
61119;BME280;51448;51.660;5.824;2023-06-26T01:10:05;101109.19;;;22.78;73.67
61119;BME280;51448;51.660;5.824;2023-06-26T01:12:34;101108.34;;;22.77;73.42
61119;BME280;51448;51.660;5.824;2023-06-26T01:15:03;101106.75;;;22.75;73.73
61119;BME280;51448;51.660;5.824;2023-06-26T01:17:32;101114.91;;;22.73;73.89
61119;BME280;51448;51.660;5.824;2023-06-26T01:20:01;101117.81;;;22.70;73.88
61119;BME280;51448;51.660;5.824;2023-06-26T01:25:37;101121.94;;;22.63;74.21
61119;BME280;51448;51.660;5.824;2023-06-26T01:28:11;101125.81;;;22.59;74.83
61119;BME280;51448;51.660;5.824;2023-06-26T01:30:43;101125.16;;;22.55;75.00
61119;BME280;51448;51.660;5.824;2023-06-26T01:33:13;101128.94;;;22.53;75.05
61119;BME280;51448;51.660;5.824;2023-06-26T01:35:42;101134.50;;;22.49;74.96
61119;BME280;51448;51.660;5.824;2023-06-26T01:38:14;101132.81;;;22.48;75.27
61119;BME280;51448;51.660;5.824;2023-06-26T01:40:43;101137.53;;;22.45;75.52
61119;BME280;51448;51.660;5.824;2023-06-26T01:46:16;101137.25;;;22.37;75.78
61119;BME280;51448;51.660;5.824;2023-06-26T01:48:58;101143.78;;;22.33;75.22
61119;BME280;51448;51.660;5.824;2023-06-26T01:51:35;101145.09;;;22.27;75.30
61119;BME280;51448;51.660;5.824;2023-06-26T01:54:10;101148.75;;;22.26;74.75
61119;BME280;51448;51.660;5.824;2023-06-26T01:56:49;101154.22;;;22.24;74.79
61119;BME280;51448;51.660;5.824;2023-06-26T01:59:19;101153.44;;;22.22;74.57
61119;BME280;51448;51.660;5.824;2023-06-26T02:01:49;101152.69;;;22.20;74.09
61119;BME280;51448;51.660;5.824;2023-06-26T02:04:16;101157.19;;;22.20;74.52
61119;BME280;51448;51.660;5.824;2023-06-26T02:06:44;101167.91;;;22.20;74.14
61119;BME280;51448;51.660;5.824;2023-06-26T02:09:12;101163.63;;;22.17;74.00
61119;BME280;51448;51.660;5.824;2023-06-26T02:11:39;101167.38;;;22.15;73.78
61119;BME280;51448;51.660;5.824;2023-06-26T02:14:07;101165.78;;;22.12;73.99
61119;BME280;51448;51.660;5.824;2023-06-26T02:16:36;101166.84;;;22.09;73.44
61119;BME280;51448;51.660;5.824;2023-06-26T02:19:06;101181.44;;;22.05;72.97
61119;BME280;51448;51.660;5.824;2023-06-26T02:21:35;101171.06;;;22.01;72.74
61119;BME280;51448;51.660;5.824;2023-06-26T02:24:03;101176.72;;;21.96;72.54
61119;BME280;51448;51.660;5.824;2023-06-26T02:26:33;101176.19;;;21.91;72.90
61119;BME280;51448;51.660;5.824;2023-06-26T02:29:00;101177.38;;;21.87;72.98
61119;BME280;51448;51.660;5.824;2023-06-26T02:31:28;101178.56;;;21.83;72.92
61119;BME280;51448;51.660;5.824;2023-06-26T02:33:55;101171.69;;;21.79;72.93
61119;BME280;51448;51.660;5.824;2023-06-26T02:36:23;101169.22;;;21.76;73.27
61119;BME280;51448;51.660;5.824;2023-06-26T02:38:51;101174.81;;;21.73;73.09
61119;BME280;51448;51.660;5.824;2023-06-26T02:41:18;101175.13;;;21.68;73.71
61119;BME280;51448;51.660;5.824;2023-06-26T02:43:46;101177.16;;;21.64;73.90
61119;BME280;51448;51.660;5.824;2023-06-26T02:46:14;101181.00;;;21.60;73.54
61119;BME280;51448;51.660;5.824;2023-06-26T02:48:42;101180.44;;;21.55;74.38
61119;BME280;51448;51.660;5.824;2023-06-26T02:51:09;101187.72;;;21.53;74.67
61119;BME280;51448;51.660;5.824;2023-06-26T02:53:37;101181.84;;;21.48;74.25
61119;BME280;51448;51.660;5.824;2023-06-26T02:56:06;101184.72;;;21.45;74.62
61119;BME280;51448;51.660;5.824;2023-06-26T02:58:35;101197.44;;;21.41;74.58
61119;BME280;51448;51.660;5.824;2023-06-26T03:01:03;101196.78;;;21.38;74.75
61119;BME280;51448;51.660;5.824;2023-06-26T03:03:31;101200.63;;;21.34;75.08
61119;BME280;51448;51.660;5.824;2023-06-26T03:06:11;101199.97;;;21.30;75.51
61119;BME280;51448;51.660;5.824;2023-06-26T03:08:40;101199.31;;;21.26;75.69
61119;BME280;51448;51.660;5.824;2023-06-26T03:11:08;101204.78;;;21.25;75.84
61119;BME280;51448;51.660;5.824;2023-06-26T03:13:39;101216.75;;;21.19;75.84
61119;BME280;51448;51.660;5.824;2023-06-26T03:16:07;101210.66;;;21.17;76.10
61119;BME280;51448;51.660;5.824;2023-06-26T03:18:35;101212.66;;;21.14;76.71
61119;BME280;51448;51.660;5.824;2023-06-26T03:21:02;101210.84;;;21.14;77.01
61119;BME280;51448;51.660;5.824;2023-06-26T03:23:30;101209.13;;;21.13;77.19
61119;BME280;51448;51.660;5.824;2023-06-26T03:25:58;101215.56;;;21.10;77.23
61119;BME280;51448;51.660;5.824;2023-06-26T03:28:29;101211.06;;;21.11;77.52
61119;BME280;51448;51.660;5.824;2023-06-26T03:30:59;101225.38;;;21.10;77.84
61119;BME280;51448;51.660;5.824;2023-06-26T03:33:27;101221.84;;;21.09;77.93
61119;BME280;51448;51.660;5.824;2023-06-26T03:35:56;101223.66;;;21.09;78.10
61119;BME280;51448;51.660;5.824;2023-06-26T03:38:24;101221.94;;;21.08;78.44
61119;BME280;51448;51.660;5.824;2023-06-26T03:40:56;101227.50;;;21.05;78.63
61119;BME280;51448;51.660;5.824;2023-06-26T03:43:24;101227.69;;;21.02;79.02
61119;BME280;51448;51.660;5.824;2023-06-26T03:46:04;101228.00;;;20.97;79.12
61119;BME280;51448;51.660;5.824;2023-06-26T03:48:34;101223.81;;;20.93;79.43
61119;BME280;51448;51.660;5.824;2023-06-26T03:51:02;101222.19;;;20.90;79.71
61119;BME280;51448;51.660;5.824;2023-06-26T03:53:30;101217.03;;;20.87;80.05
61119;BME280;51448;51.660;5.824;2023-06-26T03:55:59;101218.00;;;20.86;80.02
61119;BME280;51448;51.660;5.824;2023-06-26T03:58:27;101223.38;;;20.86;80.27
61119;BME280;51448;51.660;5.824;2023-06-26T04:00:54;101224.22;;;20.87;80.55
61119;BME280;51448;51.660;5.824;2023-06-26T04:03:23;101226.97;;;20.85;80.54
61119;BME280;51448;51.660;5.824;2023-06-26T04:05:51;101228.88;;;20.83;80.63
61119;BME280;51448;51.660;5.824;2023-06-26T04:08:19;101231.69;;;20.82;80.89
61119;BME280;51448;51.660;5.824;2023-06-26T04:10:48;101240.75;;;20.79;81.15
61119;BME280;51448;51.660;5.824;2023-06-26T04:13:15;101241.91;;;20.75;81.19
61119;BME280;51448;51.660;5.824;2023-06-26T04:15:43;101243.06;;;20.71;81.57
61119;BME280;51448;51.660;5.824;2023-06-26T04:18:10;101247.75;;;20.67;81.33
61119;BME280;51448;51.660;5.824;2023-06-26T04:20:43;101251.66;;;20.62;82.11
61119;BME280;51448;51.660;5.824;2023-06-26T04:23:34;101256.63;;;20.54;82.07
61119;BME280;51448;51.660;5.824;2023-06-26T04:26:03;101263.09;;;20.49;82.31
61119;BME280;51448;51.660;5.824;2023-06-26T04:28:35;101270.53;;;20.44;82.62
61119;BME280;51448;51.660;5.824;2023-06-26T04:31:03;101266.47;;;20.39;82.63
61119;BME280;51448;51.660;5.824;2023-06-26T04:33:31;101274.66;;;20.36;83.01
61119;BME280;51448;51.660;5.824;2023-06-26T04:35:59;101279.31;;;20.32;83.15
61119;BME280;51448;51.660;5.824;2023-06-26T04:38:32;101275.13;;;20.28;83.13
61119;BME280;51448;51.660;5.824;2023-06-26T04:41:01;101269.97;;;20.25;83.38
61119;BME280;51448;51.660;5.824;2023-06-26T04:43:29;101272.94;;;20.20;83.41
61119;BME280;51448;51.660;5.824;2023-06-26T04:45:56;101274.63;;;20.21;83.60
61119;BME280;51448;51.660;5.824;2023-06-26T04:48:24;101285.16;;;20.24;84.10
61119;BME280;51448;51.660;5.824;2023-06-26T04:50:55;101279.44;;;20.30;84.21
61119;BME280;51448;51.660;5.824;2023-06-26T04:53:23;101289.81;;;20.35;84.30
61119;BME280;51448;51.660;5.824;2023-06-26T04:55:52;101292.28;;;20.38;84.23
61119;BME280;51448;51.660;5.824;2023-06-26T04:58:20;101300.13;;;20.41;84.72
61119;BME280;51448;51.660;5.824;2023-06-26T05:00:48;101299.53;;;20.50;84.49
61119;BME280;51448;51.660;5.824;2023-06-26T05:03:17;101292.59;;;20.62;84.24
61119;BME280;51448;51.660;5.824;2023-06-26T05:05:46;101298.78;;;20.77;83.91
61119;BME280;51448;51.660;5.824;2023-06-26T05:08:18;101295.44;;;20.88;84.41
61119;BME280;51448;51.660;5.824;2023-06-26T05:10:48;101292.00;;;21.00;84.39
61119;BME280;51448;51.660;5.824;2023-06-26T05:13:16;101297.78;;;21.07;84.41
61119;BME280;51448;51.660;5.824;2023-06-26T05:15:45;101300.16;;;21.12;84.53
61119;BME280;51448;51.660;5.824;2023-06-26T05:18:14;101295.56;;;21.14;84.74
61119;BME280;51448;51.660;5.824;2023-06-26T05:20:42;101301.75;;;21.14;84.78
61119;BME280;51448;51.660;5.824;2023-06-26T05:23:11;101304.34;;;21.16;85.24
61119;BME280;51448;51.660;5.824;2023-06-26T05:25:40;101298.16;;;21.15;85.26
61119;BME280;51448;51.660;5.824;2023-06-26T05:28:08;101298.16;;;21.15;85.52
61119;BME280;51448;51.660;5.824;2023-06-26T05:30:38;101308.63;;;21.18;85.50
61119;BME280;51448;51.660;5.824;2023-06-26T05:33:08;101312.72;;;21.24;85.66
61119;BME280;51448;51.660;5.824;2023-06-26T05:35:40;101322.38;;;21.26;85.33
61119;BME280;51448;51.660;5.824;2023-06-26T05:38:10;101316.16;;;21.26;85.34
61119;BME280;51448;51.660;5.824;2023-06-26T05:40:38;101319.41;;;21.31;85.57
61119;BME280;51448;51.660;5.824;2023-06-26T05:43:08;101331.41;;;21.38;85.22
61119;BME280;51448;51.660;5.824;2023-06-26T05:45:36;101333.72;;;21.44;85.30
61119;BME280;51448;51.660;5.824;2023-06-26T05:48:04;101338.13;;;21.45;84.98
61119;BME280;51448;51.660;5.824;2023-06-26T05:50:33;101347.44;;;21.53;84.73
61119;BME280;51448;51.660;5.824;2023-06-26T05:53:01;101349.28;;;21.52;84.71
61119;BME280;51448;51.660;5.824;2023-06-26T05:55:30;101350.44;;;21.48;84.70
61119;BME280;51448;51.660;5.824;2023-06-26T05:57:58;101349.84;;;21.43;84.44
61119;BME280;51448;51.660;5.824;2023-06-26T06:00:27;101351.00;;;21.39;84.66
61119;BME280;51448;51.660;5.824;2023-06-26T06:02:55;101354.38;;;21.42;84.68
61119;BME280;51448;51.660;5.824;2023-06-26T06:05:23;101364.75;;;21.47;84.18
61119;BME280;51448;51.660;5.824;2023-06-26T06:07:50;101371.63;;;21.51;84.13
61119;BME280;51448;51.660;5.824;2023-06-26T06:10:18;101370.69;;;21.52;84.34
61119;BME280;51448;51.660;5.824;2023-06-26T06:12:46;101374.78;;;21.58;83.68
61119;BME280;51448;51.660;5.824;2023-06-26T06:15:13;101376.16;;;21.63;83.75
61119;BME280;51448;51.660;5.824;2023-06-26T06:17:41;101376.75;;;21.68;83.86
61119;BME280;51448;51.660;5.824;2023-06-26T06:20:11;101375.94;;;21.81;83.57
61119;BME280;51448;51.660;5.824;2023-06-26T06:22:39;101382.28;;;21.93;83.29
61119;BME280;51448;51.660;5.824;2023-06-26T06:25:06;101393.78;;;22.07;82.75
61119;BME280;51448;51.660;5.824;2023-06-26T06:27:34;101402.47;;;22.11;82.30
61119;BME280;51448;51.660;5.824;2023-06-26T06:30:02;101402.59;;;22.22;82.30
61119;BME280;51448;51.660;5.824;2023-06-26T06:32:33;101410.47;;;22.38;81.78
61119;BME280;51448;51.660;5.824;2023-06-26T06:35:01;101402.09;;;22.56;81.16
61119;BME280;51448;51.660;5.824;2023-06-26T06:37:37;101415.81;;;22.64;80.58
61119;BME280;51448;51.660;5.824;2023-06-26T06:40:06;101414.66;;;22.68;80.08
61119;BME280;51448;51.660;5.824;2023-06-26T06:42:34;101419.81;;;22.71;79.40
61119;BME280;51448;51.660;5.824;2023-06-26T06:45:03;101417.22;;;22.82;78.97
61119;BME280;51448;51.660;5.824;2023-06-26T06:47:32;101410.13;;;22.94;78.13
61119;BME280;51448;51.660;5.824;2023-06-26T06:50:01;101415.31;;;23.10;78.41
61119;BME280;51448;51.660;5.824;2023-06-26T06:52:46;101403.97;;;23.30;77.49
61119;BME280;51448;51.660;5.824;2023-06-26T06:55:14;101414.31;;;23.48;77.45
61119;BME280;51448;51.660;5.824;2023-06-26T06:57:42;101411.16;;;23.67;76.15
61119;BME280;51448;51.660;5.824;2023-06-26T07:00:13;101418.34;;;23.66;75.57
61119;BME280;51448;51.660;5.824;2023-06-26T07:02:45;101426.19;;;23.69;75.29
61119;BME280;51448;51.660;5.824;2023-06-26T07:05:14;101429.69;;;23.83;74.72
61119;BME280;51448;51.660;5.824;2023-06-26T07:07:41;101437.44;;;23.75;73.72
61119;BME280;51448;51.660;5.824;2023-06-26T07:10:11;101442.78;;;23.75;73.38
61119;BME280;51448;51.660;5.824;2023-06-26T07:12:40;101434.25;;;23.69;72.89
61119;BME280;51448;51.660;5.824;2023-06-26T07:15:08;101452.75;;;23.61;72.51
61119;BME280;51448;51.660;5.824;2023-06-26T07:17:35;101446.34;;;23.51;71.64
61119;BME280;51448;51.660;5.824;2023-06-26T07:20:06;101458.59;;;23.42;71.97
61119;BME280;51448;51.660;5.824;2023-06-26T07:22:36;101470.09;;;23.32;71.78
61119;BME280;51448;51.660;5.824;2023-06-26T07:25:04;101467.66;;;23.28;71.43
61119;BME280;51448;51.660;5.824;2023-06-26T07:27:37;101466.75;;;23.41;71.80
61119;BME280;51448;51.660;5.824;2023-06-26T07:30:06;101467.56;;;23.67;71.51
61119;BME280;51448;51.660;5.824;2023-06-26T07:32:38;101462.47;;;23.75;71.56
61119;BME280;51448;51.660;5.824;2023-06-26T07:35:08;101470.53;;;23.99;71.86
61119;BME280;51448;51.660;5.824;2023-06-26T07:37:36;101481.75;;;23.93;70.38
61119;BME280;51448;51.660;5.824;2023-06-26T07:40:04;101473.53;;;23.83;69.92
61119;BME280;51448;51.660;5.824;2023-06-26T07:42:32;101482.03;;;23.64;69.85
61119;BME280;51448;51.660;5.824;2023-06-26T07:44:59;101485.72;;;23.63;70.15
61119;BME280;51448;51.660;5.824;2023-06-26T07:47:27;101488.34;;;23.76;70.03
61119;BME280;51448;51.660;5.824;2023-06-26T07:49:56;101488.97;;;23.93;69.99
61119;BME280;51448;51.660;5.824;2023-06-26T07:52:24;101491.72;;;24.04;69.23
61119;BME280;51448;51.660;5.824;2023-06-26T07:54:51;101492.28;;;24.20;69.37
61119;BME280;51448;51.660;5.824;2023-06-26T07:57:19;101494.00;;;24.21;69.93
61119;BME280;51448;51.660;5.824;2023-06-26T07:59:47;101489.53;;;24.09;70.22
61119;BME280;51448;51.660;5.824;2023-06-26T08:02:14;101493.94;;;23.86;69.98
61119;BME280;51448;51.660;5.824;2023-06-26T08:04:43;101502.97;;;23.72;69.64
61119;BME280;51448;51.660;5.824;2023-06-26T08:07:12;101507.06;;;23.78;70.01
61119;BME280;51448;51.660;5.824;2023-06-26T08:09:41;101514.53;;;23.98;70.35
61119;BME280;51448;51.660;5.824;2023-06-26T08:12:09;101508.63;;;24.17;69.95
61119;BME280;51448;51.660;5.824;2023-06-26T08:14:39;101505.66;;;24.33;69.57
61119;BME280;51448;51.660;5.824;2023-06-26T08:17:07;101501.78;;;24.48;69.37
61119;BME280;51448;51.660;5.824;2023-06-26T08:19:35;101507.13;;;24.61;68.09
61119;BME280;51448;51.660;5.824;2023-06-26T08:22:02;101500.03;;;24.60;68.01
61119;BME280;51448;51.660;5.824;2023-06-26T08:24:30;101507.88;;;24.75;68.37
61119;BME280;51448;51.660;5.824;2023-06-26T08:26:58;101502.66;;;24.96;68.46
61119;BME280;51448;51.660;5.824;2023-06-26T08:29:26;101512.34;;;25.09;68.23
61119;BME280;51448;51.660;5.824;2023-06-26T08:31:53;101507.91;;;24.97;67.99
61119;BME280;51448;51.660;5.824;2023-06-26T08:34:21;101519.50;;;24.75;67.36
61119;BME280;51448;51.660;5.824;2023-06-26T08:36:49;101512.97;;;24.55;67.14
61119;BME280;51448;51.660;5.824;2023-06-26T08:39:16;101515.06;;;24.63;68.02
61119;BME280;51448;51.660;5.824;2023-06-26T08:41:44;101522.91;;;24.77;68.50
61119;BME280;51448;51.660;5.824;2023-06-26T08:44:12;101527.28;;;24.67;67.23
61119;BME280;51448;51.660;5.824;2023-06-26T08:46:40;101528.38;;;24.53;67.33
61119;BME280;51448;51.660;5.824;2023-06-26T08:49:14;101529.09;;;24.31;66.35
61119;BME280;51448;51.660;5.824;2023-06-26T08:52:02;101520.81;;;24.10;66.69
61119;BME280;51448;51.660;5.824;2023-06-26T08:54:36;101533.00;;;24.27;66.45
61119;BME280;51448;51.660;5.824;2023-06-26T08:57:13;101526.31;;;24.33;65.33
61119;BME280;51448;51.660;5.824;2023-06-26T08:59:46;101534.38;;;24.33;64.98
61119;BME280;51448;51.660;5.824;2023-06-26T09:02:15;101529.75;;;24.46;64.27
61119;BME280;51448;51.660;5.824;2023-06-26T09:04:44;101547.47;;;24.61;63.80
61119;BME280;51448;51.660;5.824;2023-06-26T09:07:11;101535.78;;;24.74;63.35
61119;BME280;51448;51.660;5.824;2023-06-26T09:09:39;101547.16;;;24.88;62.68
61119;BME280;51448;51.660;5.824;2023-06-26T09:12:11;101558.81;;;25.00;61.17
61119;BME280;51448;51.660;5.824;2023-06-26T09:14:38;101567.28;;;25.07;61.44
61119;BME280;51448;51.660;5.824;2023-06-26T09:17:07;101550.38;;;25.16;59.39
61119;BME280;51448;51.660;5.824;2023-06-26T09:19:37;101558.47;;;25.16;57.84
61119;BME280;51448;51.660;5.824;2023-06-26T09:22:11;101563.72;;;25.18;59.51
61119;BME280;51448;51.660;5.824;2023-06-26T09:24:41;101570.97;;;25.28;58.56
61119;BME280;51448;51.660;5.824;2023-06-26T09:27:11;101569.66;;;25.34;57.71
61119;BME280;51448;51.660;5.824;2023-06-26T09:29:39;101578.94;;;25.30;58.06
61119;BME280;51448;51.660;5.824;2023-06-26T09:32:08;101582.00;;;25.25;56.31
61119;BME280;51448;51.660;5.824;2023-06-26T09:34:37;101583.72;;;25.26;55.45
61119;BME280;51448;51.660;5.824;2023-06-26T09:37:12;101579.22;;;25.27;54.50
61119;BME280;51448;51.660;5.824;2023-06-26T09:39:41;101583.31;;;25.20;53.72
61119;BME280;51448;51.660;5.824;2023-06-26T09:42:09;101588.28;;;25.02;53.78
61119;BME280;51448;51.660;5.824;2023-06-26T09:44:43;101587.75;;;24.85;54.00
61119;BME280;51448;51.660;5.824;2023-06-26T09:47:12;101584.47;;;24.82;54.39
61119;BME280;51448;51.660;5.824;2023-06-26T09:49:45;101608.06;;;24.89;54.28
61119;BME280;51448;51.660;5.824;2023-06-26T09:52:16;101599.03;;;25.02;55.27
61119;BME280;51448;51.660;5.824;2023-06-26T09:54:45;101594.06;;;25.20;55.65
61119;BME280;51448;51.660;5.824;2023-06-26T09:57:16;101611.03;;;25.33;55.10
61119;BME280;51448;51.660;5.824;2023-06-26T09:59:45;101607.72;;;25.29;53.71
61119;BME280;51448;51.660;5.824;2023-06-26T10:02:13;101613.03;;;25.07;53.54
61119;BME280;51448;51.660;5.824;2023-06-26T10:04:41;101613.50;;;25.01;54.59
61119;BME280;51448;51.660;5.824;2023-06-26T10:07:11;101613.44;;;24.89;53.11
61119;BME280;51448;51.660;5.824;2023-06-26T10:09:44;101603.88;;;24.85;53.20
61119;BME280;51448;51.660;5.824;2023-06-26T10:12:19;101608.81;;;24.92;52.08
61119;BME280;51448;51.660;5.824;2023-06-26T10:14:57;101609.69;;;25.03;52.78
61119;BME280;51448;51.660;5.824;2023-06-26T10:17:28;101618.41;;;25.18;52.30
61119;BME280;51448;51.660;5.824;2023-06-26T10:20:02;101612.34;;;25.27;50.67
61119;BME280;51448;51.660;5.824;2023-06-26T10:22:37;101614.69;;;25.32;50.75
61119;BME280;51448;51.660;5.824;2023-06-26T10:25:12;101618.22;;;25.33;50.40
61119;BME280;51448;51.660;5.824;2023-06-26T10:27:50;101613.22;;;25.28;50.74
61119;BME280;51448;51.660;5.824;2023-06-26T10:30:26;101619.44;;;25.28;51.29
61119;BME280;51448;51.660;5.824;2023-06-26T10:32:57;101631.47;;;25.36;51.01
61119;BME280;51448;51.660;5.824;2023-06-26T10:35:26;101630.28;;;25.16;51.77
61119;BME280;51448;51.660;5.824;2023-06-26T10:38:00;101629.47;;;24.91;50.96
61119;BME280;51448;51.660;5.824;2023-06-26T10:40:44;101629.84;;;24.86;50.70
61119;BME280;51448;51.660;5.824;2023-06-26T10:43:15;101618.81;;;24.89;51.11
61119;BME280;51448;51.660;5.824;2023-06-26T10:45:45;101635.13;;;24.99;50.94
61119;BME280;51448;51.660;5.824;2023-06-26T10:48:19;101620.56;;;25.02;50.88
61119;BME280;51448;51.660;5.824;2023-06-26T10:50:48;101630.38;;;25.03;50.09
61119;BME280;51448;51.660;5.824;2023-06-26T10:55:51;101642.00;;;25.03;49.99
61119;BME280;51448;51.660;5.824;2023-06-26T10:58:40;101645.81;;;25.12;48.81
61119;BME280;51448;51.660;5.824;2023-06-26T11:01:17;101657.44;;;25.13;46.81
61119;BME280;51448;51.660;5.824;2023-06-26T11:06:25;101655.34;;;25.16;47.42
61119;BME280;51448;51.660;5.824;2023-06-26T11:08:55;101638.28;;;25.28;47.39
61119;BME280;51448;51.660;5.824;2023-06-26T11:14:26;101657.44;;;25.59;47.07
61119;BME280;51448;51.660;5.824;2023-06-26T11:16:57;101655.34;;;25.63;45.87
61119;BME280;51448;51.660;5.824;2023-06-26T11:19:27;101655.63;;;25.60;46.12
61119;BME280;51448;51.660;5.824;2023-06-26T11:22:01;101671.28;;;25.66;45.85
61119;BME280;51448;51.660;5.824;2023-06-26T11:24:30;101673.50;;;25.72;45.35
61119;BME280;51448;51.660;5.824;2023-06-26T11:27:02;101675.94;;;25.75;44.32
61119;BME280;51448;51.660;5.824;2023-06-26T11:29:32;101668.84;;;25.74;44.17
61119;BME280;51448;51.660;5.824;2023-06-26T11:32:02;101674.34;;;25.73;44.39
61119;BME280;51448;51.660;5.824;2023-06-26T11:34:33;101677.78;;;25.75;45.20
61119;BME280;51448;51.660;5.824;2023-06-26T11:37:02;101675.56;;;25.68;44.59
61119;BME280;51448;51.660;5.824;2023-06-26T11:39:30;101677.78;;;25.75;44.72
61119;BME280;51448;51.660;5.824;2023-06-26T11:41:59;101692.13;;;25.86;43.79
61119;BME280;51448;51.660;5.824;2023-06-26T11:44:31;101693.56;;;25.79;43.08
61119;BME280;51448;51.660;5.824;2023-06-26T11:46:59;101685.34;;;25.58;44.17
61119;BME280;51448;51.660;5.824;2023-06-26T11:49:28;101695.50;;;25.55;45.03
61119;BME280;51448;51.660;5.824;2023-06-26T11:51:56;101698.09;;;25.56;45.12
61119;BME280;51448;51.660;5.824;2023-06-26T11:54:25;101712.16;;;25.48;45.50
61119;BME280;51448;51.660;5.824;2023-06-26T11:56:55;101714.19;;;25.34;44.04
61119;BME280;51448;51.660;5.824;2023-06-26T11:59:41;101721.06;;;25.14;44.01
61119;BME280;51448;51.660;5.824;2023-06-26T12:02:10;101714.72;;;24.90;44.09
61119;BME280;51448;51.660;5.824;2023-06-26T12:04:42;101718.63;;;24.86;44.75
61119;BME280;51448;51.660;5.824;2023-06-26T12:07:12;101720.28;;;24.76;43.76
61119;BME280;51448;51.660;5.824;2023-06-26T12:09:42;101736.88;;;24.70;44.01
61119;BME280;51448;51.660;5.824;2023-06-26T12:12:13;101727.88;;;24.58;44.57
61119;BME280;51448;51.660;5.824;2023-06-26T12:14:43;101737.78;;;24.32;44.31
61119;BME280;51448;51.660;5.824;2023-06-26T12:17:12;101739.09;;;24.14;44.68
61119;BME280;51448;51.660;5.824;2023-06-26T12:19:45;101740.41;;;24.21;45.53
61119;BME280;51448;51.660;5.824;2023-06-26T12:22:18;101747.25;;;24.38;45.85
61119;BME280;51448;51.660;5.824;2023-06-26T12:24:46;101747.34;;;24.62;46.04
61119;BME280;51448;51.660;5.824;2023-06-26T12:27:17;101730.34;;;24.85;46.43
61119;BME280;51448;51.660;5.824;2023-06-26T12:29:51;101734.88;;;25.09;45.62
61119;BME280;51448;51.660;5.824;2023-06-26T12:32:26;101736.66;;;25.21;44.97
61119;BME280;51448;51.660;5.824;2023-06-26T12:34:56;101747.72;;;25.29;45.21
61119;BME280;51448;51.660;5.824;2023-06-26T12:37:24;101742.59;;;25.38;44.33
61119;BME280;51448;51.660;5.824;2023-06-26T12:39:55;101740.28;;;25.44;44.85
61119;BME280;51448;51.660;5.824;2023-06-26T12:42:26;101742.88;;;25.57;44.78
61119;BME280;51448;51.660;5.824;2023-06-26T12:44:55;101736.81;;;25.66;44.86
61119;BME280;51448;51.660;5.824;2023-06-26T12:47:28;101737.44;;;25.70;45.11
61119;BME280;51448;51.660;5.824;2023-06-26T12:49:58;101741.13;;;25.80;45.53
61119;BME280;51448;51.660;5.824;2023-06-26T12:52:25;101732.31;;;25.89;44.92
61119;BME280;51448;51.660;5.824;2023-06-26T12:54:55;101725.59;;;25.95;44.27
61119;BME280;51448;51.660;5.824;2023-06-26T12:57:24;101720.94;;;25.97;44.09
61119;BME280;51448;51.660;5.824;2023-06-26T12:59:52;101723.63;;;25.97;43.67
61119;BME280;51448;51.660;5.824;2023-06-26T13:02:20;101731.97;;;26.05;44.04
61119;BME280;51448;51.660;5.824;2023-06-26T13:04:48;101727.31;;;26.19;43.68
61119;BME280;51448;51.660;5.824;2023-06-26T13:07:15;101729.75;;;26.33;44.22
61119;BME280;51448;51.660;5.824;2023-06-26T13:09:44;101721.38;;;26.47;43.64
61119;BME280;51448;51.660;5.824;2023-06-26T13:12:13;101739.06;;;26.29;43.91
61119;BME280;51448;51.660;5.824;2023-06-26T13:14:41;101742.25;;;26.00;43.55
61119;BME280;51448;51.660;5.824;2023-06-26T13:17:08;101738.50;;;25.56;44.12